Terminal Aerodrome Forecast
Issued by NWS

Current Version | Previous Version | Graphics & Text | Print | Product List | Glossary On
Versions: 1 2 3 4 5 6 7 8 9 10 11 12 13 14 15 16 17 18 19 20 21 22 23 24 25
332
FTUS41 KILN 281415 AAA
TAFLCK
TAF AMD
KLCK 281415Z 2814/2912 00000KT P6SM -RA SCT012 BKN050 OVC080
     FM281500 16005KT P6SM VCSH BKN040 BKN150
     FM290300 VRB04KT P6SM BKN090
     FM290800 VRB02KT 3SM BR BKN150=

USA.gov is the U.S. government's official web portal to all federal, state and local government web resources and services.